Time;durP1;ratioP1;P1;durP2;ratioP2;P2;SDS_P1;SDS_P2;PMS_P1;PMS_P2;Temp;Humidity;BMP_temperature;BMP_pressure;BME280_temperature;BME280_humidity;BME280_pressure;Samples;Min_cycle;Max_cycle;Signal;HPM_P1;HPM_P2
2021/05/31 00:00:21;;;;;;;2.17;0.63;;;15.30;56.60;;;;;;5011915;28;20437;-68
2021/05/31 00:02:47;;;;;;;0.68;0.57;;;15.20;56.80;;;;;;5011596;28;20030;-70
2021/05/31 00:05:15;;;;;;;3.08;0.80;;;15.20;56.90;;;;;;5012161;28;20109;-70
2021/05/31 00:07:41;;;;;;;2.33;1.15;;;15.20;56.90;;;;;;5011759;28;20049;-70
2021/05/31 00:10:09;;;;;;;0.82;0.50;;;15.10;57.00;;;;;;5011727;28;20038;-70
2021/05/31 00:12:35;;;;;;;0.82;0.60;;;15.10;57.10;;;;;;5011916;28;20022;-69
2021/05/31 00:15:01;;;;;;;1.83;0.70;;;15.10;57.20;;;;;;5011573;28;20555;-70
2021/05/31 00:17:27;;;;;;;0.68;0.50;;;15.10;57.30;;;;;;5011997;28;20026;-69
2021/05/31 00:19:54;;;;;;;0.82;0.60;;;15.00;57.40;;;;;;5011622;28;20078;-69
2021/05/31 00:22:21;;;;;;;3.28;0.52;;;15.00;57.60;;;;;;5011622;28;20045;-69
2021/05/31 00:24:48;;;;;;;1.45;0.63;;;15.10;57.60;;;;;;5011627;28;20041;-69
2021/05/31 00:27:15;;;;;;;1.33;0.73;;;15.10;57.50;;;;;;5011576;28;20465;-69
2021/05/31 00:29:42;;;;;;;1.00;0.70;;;15.10;57.90;;;;;;5011852;28;20033;-69
2021/05/31 00:32:08;;;;;;;1.02;0.80;;;15.10;57.80;;;;;;5011734;28;20061;-69
2021/05/31 00:34:34;;;;;;;2.92;0.75;;;15.10;57.70;;;;;;5011776;28;20026;-69
2021/05/31 00:37:00;;;;;;;1.35;0.80;;;15.20;58.10;;;;;;5011110;28;20050;-69
2021/05/31 00:39:26;;;;;;;1.55;0.90;;;15.10;57.90;;;;;;5011973;28;20366;-69
2021/05/31 00:41:53;;;;;;;1.38;0.65;;;15.10;57.90;;;;;;5015025;28;20034;-69
2021/05/31 00:44:21;;;;;;;0.88;0.60;;;15.10;58.10;;;;;;5015074;28;20038;-69
2021/05/31 00:46:48;;;;;;;1.55;0.60;;;15.10;58.30;;;;;;5014942;28;20627;-69
2021/05/31 00:49:20;;;;;;;2.30;0.80;;;15.00;58.40;;;;;;5015285;28;20030;-69
2021/05/31 00:51:46;;;;;;;3.13;1.17;;;15.00;58.50;;;;;;5014894;28;20519;-69
2021/05/31 00:54:13;;;;;;;0.55;0.55;;;15.00;58.80;;;;;;5015114;28;20168;-70
2021/05/31 00:56:41;;;;;;;1.73;0.70;;;14.90;58.70;;;;;;5015185;28;20112;-69
2021/05/31 00:59:08;;;;;;;0.88;0.50;;;14.90;58.90;;;;;;5014907;28;20097;-69
2021/05/31 01:01:34;;;;;;;2.95;0.60;;;14.80;58.90;;;;;;5015129;28;20033;-70
2021/05/31 01:04:01;;;;;;;1.55;0.60;;;14.80;58.90;;;;;;5014858;28;20030;-70
2021/05/31 01:06:32;;;;;;;2.10;0.65;;;14.70;59.40;;;;;;5014677;28;20425;-69
2021/05/31 01:09:18;;;;;;;1.67;0.60;;;14.80;59.40;;;;;;5014549;28;20041;-69
2021/05/31 01:11:47;;;;;;;3.25;0.60;;;14.60;59.40;;;;;;5014831;28;20416;-70
2021/05/31 01:14:20;;;;;;;1.92;0.63;;;14.60;59.70;;;;;;5014436;28;20501;-69
2021/05/31 01:17:13;;;;;;;2.75;0.70;;;14.60;60.00;;;;;;5014454;28;20029;-70
2021/05/31 01:20:03;;;;;;;1.17;0.70;;;14.40;60.30;;;;;;5005718;28;20481;-70
2021/05/31 01:22:34;;;;;;;0.80;0.60;;;14.30;60.60;;;;;;5014378;28;20030;-70
2021/05/31 01:25:08;;;;;;;2.05;0.70;;;14.30;60.90;;;;;;5014411;28;20041;-70
2021/05/31 01:28:12;;;;;;;0.88;0.55;;;14.20;61.00;;;;;;5014359;28;20099;-70
2021/05/31 01:30:43;;;;;;;0.77;0.50;;;14.30;61.20;;;;;;4985314;28;20397;-70
2021/05/31 01:33:15;;;;;;;0.77;0.57;;;14.20;61.20;;;;;;5014105;28;20108;-69
2021/05/31 01:35:42;;;;;;;1.23;0.73;;;14.30;61.40;;;;;;4996420;28;20044;-67
2021/05/31 01:38:09;;;;;;;1.25;0.68;;;14.20;62.10;;;;;;5014246;28;20036;-67
2021/05/31 01:40:35;;;;;;;0.70;0.70;;;14.10;61.90;;;;;;5014323;28;20034;-69
2021/05/31 01:43:04;;;;;;;2.08;0.77;;;14.00;62.20;;;;;;5013737;28;20030;-70
2021/05/31 01:45:31;;;;;;;1.17;0.82;;;13.90;62.90;;;;;;5014279;28;20034;-69
2021/05/31 01:48:00;;;;;;;1.20;0.77;;;13.90;63.20;;;;;;5014082;28;20088;-69
2021/05/31 01:50:28;;;;;;;1.30;0.90;;;13.80;63.20;;;;;;5014002;28;20037;-69
2021/05/31 01:52:54;;;;;;;1.63;0.93;;;13.80;63.30;;;;;;5012984;28;20072;-69
2021/05/31 01:55:24;;;;;;;3.95;0.90;;;13.80;63.60;;;;;;5014042;28;20026;-69
2021/05/31 01:57:50;;;;;;;1.08;0.70;;;13.90;63.60;;;;;;5013979;28;20091;-69
2021/05/31 02:00:17;;;;;;;1.77;1.17;;;13.90;63.30;;;;;;5013505;28;20068;-70
2021/05/31 02:02:42;;;;;;;3.10;1.10;;;13.90;63.90;;;;;;5013843;28;20271;-68
2021/05/31 02:05:10;;;;;;;3.20;0.90;;;13.80;63.70;;;;;;5013506;28;20564;-68
2021/05/31 02:07:39;;;;;;;0.90;0.75;;;13.70;64.00;;;;;;5013844;28;20052;-69
2021/05/31 02:10:08;;;;;;;1.27;0.70;;;13.60;64.30;;;;;;5013685;28;20033;-70
2021/05/31 02:12:58;;;;;;;2.03;0.88;;;13.60;64.50;;;;;;5013461;28;20090;-68
2021/05/31 02:15:47;;;;;;;1.30;0.65;;;13.50;64.50;;;;;;5012894;28;20041;-68
2021/05/31 02:18:25;;;;;;;0.90;0.73;;;13.50;64.90;;;;;;5013327;28;20465;-69
2021/05/31 02:20:56;;;;;;;0.85;0.77;;;13.40;65.40;;;;;;5013577;28;20109;-69
2021/05/31 02:23:22;;;;;;;2.25;1.08;;;13.40;65.20;;;;;;5013663;28;20034;-69
2021/05/31 02:25:50;;;;;;;1.27;1.05;;;13.40;65.10;;;;;;5013328;28;20034;-69
2021/05/31 02:28:16;;;;;;;3.13;1.00;;;13.40;65.00;;;;;;5012972;28;20033;-68
2021/05/31 02:30:42;;;;;;;3.47;1.10;;;13.40;65.40;;;;;;5013144;28;20041;-68
2021/05/31 02:33:08;;;;;;;2.30;0.98;;;13.40;65.60;;;;;;5012914;28;20474;-68
2021/05/31 02:35:38;;;;;;;2.63;1.05;;;13.40;65.90;;;;;;5012921;28;20030;-67
2021/05/31 02:38:05;;;;;;;;;;;13.40;65.80;;;;;;5013566;28;20037;-68
2021/05/31 02:40:32;;;;;;;2.08;1.10;;;13.50;66.50;;;;;;5013027;28;19913;-68
2021/05/31 02:43:01;;;;;;;1.98;1.13;;;13.50;65.60;;;;;;5012901;28;20062;-68
2021/05/31 02:45:28;;;;;;;2.00;1.25;;;13.50;66.40;;;;;;5012933;28;20529;-68
2021/05/31 02:47:55;;;;;;;4.00;1.08;;;13.60;65.80;;;;;;5012843;28;20106;-68
2021/05/31 02:50:21;;;;;;;2.35;0.88;;;13.70;65.50;;;;;;4995225;28;20041;-69
2021/05/31 02:52:47;;;;;;;1.42;0.70;;;13.70;65.40;;;;;;5012738;28;20520;-69
2021/05/31 02:55:15;;;;;;;2.42;1.02;;;13.80;65.20;;;;;;5012519;28;20387;-69
2021/05/31 02:57:42;;;;;;;2.28;1.02;;;13.90;65.20;;;;;;5012586;28;20045;-69
2021/05/31 03:00:13;;;;;;;1.30;0.82;;;14.00;65.20;;;;;;5012569;28;20419;-69
2021/05/31 03:02:39;;;;;;;1.63;0.93;;;14.10;64.90;;;;;;5012265;28;20080;-69
2021/05/31 03:05:08;;;;;;;5.45;1.00;;;14.10;64.50;;;;;;5012673;28;20053;-69
2021/05/31 03:07:33;;;;;;;2.60;0.93;;;14.00;64.20;;;;;;5012418;28;20108;-69
2021/05/31 03:09:59;;;;;;;1.95;1.10;;;14.00;64.40;;;;;;5012700;28;20104;-69
2021/05/31 03:12:25;;;;;;;1.85;0.98;;;14.10;64.40;;;;;;5012696;28;20425;-70
2021/05/31 03:14:52;;;;;;;1.48;0.80;;;14.20;64.10;;;;;;4994939;28;20057;-70
2021/05/31 03:17:19;;;;;;;1.45;0.90;;;14.50;63.60;;;;;;5012516;28;20436;-70
2021/05/31 03:19:45;;;;;;;2.33;0.80;;;14.90;62.10;;;;;;5012614;28;20112;-70
2021/05/31 03:22:11;;;;;;;3.45;1.15;;;15.30;60.70;;;;;;5012467;28;20414;-70
2021/05/31 03:24:37;;;;;;;1.75;0.80;;;15.70;59.60;;;;;;5012396;28;20057;-70
2021/05/31 03:27:04;;;;;;;0.85;0.70;;;15.80;58.70;;;;;;5012406;28;20018;-70
2021/05/31 03:29:31;;;;;;;3.45;0.88;;;15.90;58.20;;;;;;5012689;28;20029;-70
2021/05/31 03:31:57;;;;;;;1.10;0.70;;;15.90;58.10;;;;;;5012694;28;20022;-70
2021/05/31 03:34:23;;;;;;;1.98;0.70;;;15.80;57.80;;;;;;5012633;28;20026;-70
2021/05/31 03:36:49;;;;;;;1.38;0.63;;;15.80;57.70;;;;;;5012076;28;20046;-69
2021/05/31 03:39:15;;;;;;;1.50;0.68;;;16.00;57.60;;;;;;5012440;28;20030;-69
2021/05/31 03:41:41;;;;;;;0.65;0.50;;;16.20;56.70;;;;;;5012530;28;20543;-69
2021/05/31 03:44:07;;;;;;;0.93;0.50;;;16.40;56.40;;;;;;5012263;28;20539;-69
2021/05/31 03:46:33;;;;;;;1.52;0.88;;;16.60;56.10;;;;;;5012174;28;20097;-69
2021/05/31 03:48:59;;;;;;;0.65;0.60;;;16.90;55.80;;;;;;5012214;28;20153;-69
2021/05/31 03:51:25;;;;;;;0.43;0.43;;;17.20;55.10;;;;;;5012371;28;20026;-69
2021/05/31 03:53:51;;;;;;;1.58;0.52;;;17.40;54.10;;;;;;5012066;28;20551;-69
2021/05/31 03:56:17;;;;;;;1.65;0.63;;;17.60;53.90;;;;;;5011840;28;20029;-69
2021/05/31 03:58:45;;;;;;;1.33;0.60;;;17.80;53.60;;;;;;5011887;28;20125;-68
2021/05/31 04:01:13;;;;;;;1.20;0.50;;;17.90;53.10;;;;;;5011893;28;20018;-67
2021/05/31 04:03:39;;;;;;;0.68;0.50;;;18.10;52.70;;;;;;5011804;28;20033;-68
2021/05/31 04:11:36;;;;;;;0.93;0.40;;;18.50;51.90;;;;;;5012170;28;20044;-68
2021/05/31 04:14:11;;;;;;;0.77;0.60;;;18.70;51.60;;;;;;5011679;28;20022;-68
2021/05/31 04:16:39;;;;;;;1.75;0.77;;;18.90;51.10;;;;;;5015636;28;20033;-68
2021/05/31 04:19:06;;;;;;;0.40;0.38;;;19.10;50.40;;;;;;5015452;28;20118;-68
2021/05/31 04:21:33;;;;;;;1.08;0.43;;;19.30;50.10;;;;;;5015689;28;20030;-68
2021/05/31 04:23:59;;;;;;;0.65;0.38;;;19.50;49.90;;;;;;5015684;28;20401;-68
2021/05/31 04:26:25;;;;;;;1.92;0.50;;;19.70;49.40;;;;;;5015806;28;20021;-68
2021/05/31 04:28:51;;;;;;;3.08;0.35;;;19.80;49.00;;;;;;5015395;28;20100;-69
2021/05/31 04:31:17;;;;;;;0.40;0.40;;;19.80;47.90;;;;;;5015334;28;20141;-68
2021/05/31 04:33:43;;;;;;;2.40;0.40;;;19.70;47.70;;;;;;5015334;28;20030;-69
2021/05/31 04:36:09;;;;;;;2.08;0.30;;;19.90;47.90;;;;;;5014904;28;20046;-70
2021/05/31 04:38:35;;;;;;;18.33;0.88;;;20.00;47.90;;;;;;5015429;28;20030;-71
2021/05/31 04:41:01;;;;;;;1.38;0.35;;;20.30;47.40;;;;;;5015206;28;20463;-71
2021/05/31 04:43:27;;;;;;;0.82;0.25;;;20.20;47.10;;;;;;5014994;28;20394;-74
2021/05/31 04:45:53;;;;;;;0.52;0.28;;;20.30;46.90;;;;;;5015194;28;20028;-71
2021/05/31 04:48:18;;;;;;;0.85;0.40;;;20.50;47.30;;;;;;5015227;28;20032;-73
2021/05/31 04:50:44;;;;;;;0.75;0.50;;;20.70;47.30;;;;;;5015163;28;20026;-73
2021/05/31 04:53:10;;;;;;;0.63;0.30;;;20.90;47.50;;;;;;5014896;28;20109;-72
2021/05/31 04:55:37;;;;;;;0.75;0.30;;;21.30;47.20;;;;;;5014974;28;20026;-70
2021/05/31 04:58:03;;;;;;;0.52;0.32;;;21.40;46.60;;;;;;5015125;28;20030;-71
2021/05/31 05:00:29;;;;;;;2.38;0.38;;;21.50;45.40;;;;;;5014777;28;20030;-69
2021/05/31 05:02:55;;;;;;;1.60;0.30;;;21.40;44.90;;;;;;4997148;28;20025;-69
2021/05/31 05:05:21;;;;;;;0.63;0.20;;;21.20;45.30;;;;;;5014758;28;20569;-69
2021/05/31 05:07:47;;;;;;;2.30;0.40;;;21.20;44.60;;;;;;5016181;28;20057;-69
2021/05/31 05:10:20;;;;;;;25.25;1.08;;;21.30;44.90;;;;;;5014501;28;20389;-70
2021/05/31 05:12:49;;;;;;;1.00;0.55;;;21.30;44.60;;;;;;5014738;28;20054;-69
2021/05/31 05:15:16;;;;;;;0.30;0.30;;;21.30;45.00;;;;;;5014278;28;20030;-69
2021/05/31 05:17:43;;;;;;;0.50;0.30;;;21.30;44.20;;;;;;5014929;28;20397;-69
2021/05/31 05:20:10;;;;;;;0.77;0.25;;;21.20;44.40;;;;;;5014390;28;20111;-69
2021/05/31 05:22:36;;;;;;;0.90;0.25;;;21.40;44.00;;;;;;5014727;28;20609;-69
2021/05/31 05:25:02;;;;;;;0.75;0.20;;;21.60;44.50;;;;;;5014593;28;20046;-68
2021/05/31 05:27:28;;;;;;;0.40;0.32;;;21.60;43.70;;;;;;5014160;28;20469;-68
2021/05/31 05:29:54;;;;;;;0.65;0.30;;;21.70;43.40;;;;;;5014419;28;20022;-69
2021/05/31 05:32:19;;;;;;;1.83;0.20;;;22.00;43.40;;;;;;5014378;28;20080;-69
2021/05/31 05:34:46;;;;;;;0.20;0.20;;;22.00;42.40;;;;;;5014497;28;20445;-69
2021/05/31 05:37:18;;;;;;;0.47;0.20;;;21.90;43.10;;;;;;5013663;28;20054;-69
2021/05/31 05:40:25;;;;;;;0.38;0.20;;;21.90;42.10;;;;;;5014525;28;20358;-69
2021/05/31 05:42:47;;;;;;;1.52;0.30;;;22.00;42.70;;;;;;5013548;28;20033;-69
2021/05/31 05:48:14;;;;;;;0.47;0.15;;;22.30;42.30;;;;;;4972567;28;20026;-69
2021/05/31 05:50:40;;;;;;;1.15;0.30;;;22.40;41.60;;;;;;5005215;28;20026;-69
2021/05/31 05:53:06;;;;;;;1.02;0.20;;;22.50;42.30;;;;;;5013646;28;20079;-69
2021/05/31 05:55:32;;;;;;;0.20;0.10;;;22.50;42.50;;;;;;5014153;28;20022;-69
2021/05/31 05:57:58;;;;;;;0.60;0.20;;;22.40;42.40;;;;;;5014039;28;20432;-70
2021/05/31 06:00:27;;;;;;;0.30;0.20;;;22.30;42.40;;;;;;5013674;28;20033;-71
2021/05/31 06:02:53;;;;;;;0.20;0.20;;;22.30;42.80;;;;;;5013912;28;20021;-68
2021/05/31 06:05:20;;;;;;;5.85;0.52;;;22.20;42.00;;;;;;5013851;28;20022;-67
2021/05/31 06:07:46;;;;;;;0.10;0.10;;;22.10;42.80;;;;;;5013546;28;20026;-68
2021/05/31 06:10:13;;;;;;;0.50;0.28;;;22.10;42.50;;;;;;5013734;28;20030;-68
2021/05/31 06:12:39;;;;;;;0.68;0.20;;;22.10;42.10;;;;;;5013359;28;20065;-70
2021/05/31 06:15:05;;;;;;;1.10;0.40;;;22.10;42.00;;;;;;5013778;28;20447;-71
2021/05/31 06:17:31;;;;;;;0.10;0.10;;;22.20;42.50;;;;;;5013762;28;20030;-70
2021/05/31 06:20:00;;;;;;;0.32;0.20;;;22.30;42.30;;;;;;5013546;28;20040;-70
2021/05/31 06:22:28;;;;;;;0.10;0.10;;;22.50;41.60;;;;;;5013239;28;20044;-70
2021/05/31 06:24:54;;;;;;;0.43;0.20;;;22.40;41.50;;;;;;5013235;28;20042;-71
2021/05/31 06:27:19;;;;;;;1.58;0.20;;;22.30;41.10;;;;;;5013114;28;20076;-70
2021/05/31 06:29:45;;;;;;;1.10;0.20;;;22.20;41.70;;;;;;5013577;28;20033;-70
2021/05/31 06:32:11;;;;;;;0.25;0.10;;;22.20;41.40;;;;;;5013334;28;20439;-70
2021/05/31 06:34:37;;;;;;;2.55;0.25;;;22.00;41.90;;;;;;5013387;28;20022;-71
2021/05/31 06:37:02;;;;;;;0.15;0.15;;;22.00;41.90;;;;;;5012451;28;20383;-71
2021/05/31 06:39:28;;;;;;;0.20;0.20;;;21.80;41.70;;;;;;5012811;28;20033;-71
2021/05/31 06:41:54;;;;;;;0.25;0.10;;;21.80;42.00;;;;;;5012502;28;20034;-69
2021/05/31 06:44:19;;;;;;;41.50;1.80;;;21.80;41.50;;;;;;4995120;28;20053;-68
2021/05/31 06:46:45;;;;;;;1.08;0.10;;;21.60;41.00;;;;;;5012954;28;20041;-69
2021/05/31 06:49:11;;;;;;;3.05;0.20;;;21.60;41.90;;;;;;5012566;28;20098;-70
2021/05/31 06:51:37;;;;;;;1.55;0.30;;;21.40;41.50;;;;;;5012621;28;20477;-73
2021/05/31 06:54:03;;;;;;;0.20;0.20;;;21.30;42.40;;;;;;5012594;28;20037;-69
2021/05/31 06:56:29;;;;;;;0.30;0.20;;;21.10;42.00;;;;;;5012672;28;20030;-69
2021/05/31 06:58:55;;;;;;;0.40;0.15;;;21.10;42.90;;;;;;5012505;28;20054;-69
2021/05/31 07:01:21;;;;;;;1.98;0.20;;;21.10;43.10;;;;;;5012527;28;20033;-69
2021/05/31 07:03:46;;;;;;;0.70;0.20;;;21.30;43.10;;;;;;5012496;28;20034;-69
2021/05/31 07:06:12;;;;;;;3.10;0.68;;;21.30;42.10;;;;;;5012415;28;20026;-72
2021/05/31 07:08:38;;;;;;;0.57;0.22;;;20.90;44.50;;;;;;5012429;28;20076;-71
2021/05/31 07:11:17;;;;;;;0.20;0.10;;;21.10;43.80;;;;;;5012504;28;20058;-71
2021/05/31 07:13:43;;;;;;;1.15;0.10;;;21.30;43.10;;;;;;5012535;28;20050;-71
2021/05/31 07:16:16;;;;;;;1.75;0.20;;;21.10;41.90;;;;;;5012054;28;20022;-70
2021/05/31 07:18:42;;;;;;;0.60;0.30;;;20.90;42.30;;;;;;4992687;28;20030;-73
2021/05/31 07:21:08;;;;;;;4.57;0.55;;;21.00;42.40;;;;;;4995711;28;20026;-73
2021/05/31 07:23:37;;;;;;;1.55;0.10;;;20.90;41.70;;;;;;5011530;28;20088;-72
2021/05/31 07:26:05;;;;;;;0.15;0.13;;;20.60;42.40;;;;;;5010316;28;20056;-70
2021/05/31 07:28:32;;;;;;;0.10;0.10;;;20.70;43.20;;;;;;5009978;28;20029;-70
2021/05/31 07:30:57;;;;;;;0.28;0.20;;;20.70;43.50;;;;;;4993748;28;20437;-71
2021/05/31 07:33:23;;;;;;;0.10;0.10;;;20.70;43.20;;;;;;5010900;28;20046;-70
2021/05/31 07:35:49;;;;;;;3.20;0.57;;;20.40;42.30;;;;;;5006545;28;20033;-70
2021/05/31 07:38:15;;;;;;;0.60;0.10;;;20.30;42.70;;;;;;5011460;28;20037;-69
2021/05/31 07:40:41;;;;;;;12.25;0.57;;;20.40;43.30;;;;;;5011963;28;20033;-71
2021/05/31 07:43:06;;;;;;;14.38;0.75;;;20.50;44.60;;;;;;5011667;28;20052;-70
2021/05/31 07:45:32;;;;;;;2.72;0.40;;;20.50;43.10;;;;;;5011803;28;20026;-70
2021/05/31 07:47:58;;;;;;;3.45;0.20;;;20.30;43.10;;;;;;5011772;28;20390;-70
2021/05/31 07:50:24;;;;;;;0.25;0.25;;;20.30;43.30;;;;;;5014073;28;20034;-70
2021/05/31 07:52:50;;;;;;;2.38;0.20;;;20.30;42.90;;;;;;5015777;28;20033;-69
2021/05/31 07:55:17;;;;;;;3.42;0.25;;;20.10;43.90;;;;;;5015831;28;20104;-69
2021/05/31 07:57:44;;;;;;;2.75;0.10;;;20.10;44.30;;;;;;5016257;28;20034;-70
2021/05/31 08:00:21;;;;;;;3.75;0.25;;;20.10;45.10;;;;;;5015912;28;20057;-70
2021/05/31 08:02:48;;;;;;;0.10;0.10;;;19.90;44.80;;;;;;5015930;28;20536;-70
2021/05/31 08:05:15;;;;;;;0.10;0.10;;;19.70;44.60;;;;;;5015694;28;20380;-69
2021/05/31 08:07:43;;;;;;;0.30;0.20;;;19.70;45.00;;;;;;5015584;28;20029;-69
2021/05/31 08:10:09;;;;;;;0.65;0.10;;;19.60;45.40;;;;;;5015854;28;20068;-69
2021/05/31 08:12:35;;;;;;;0.55;0.20;;;19.60;44.80;;;;;;5015809;28;20389;-68
2021/05/31 08:15:04;;;;;;;0.63;0.15;;;19.50;44.60;;;;;;5015590;28;20032;-69
2021/05/31 08:17:29;;;;;;;0.20;0.20;;;19.50;44.40;;;;;;5015512;28;20025;-69
2021/05/31 08:19:55;;;;;;;3.25;0.30;;;19.40;45.40;;;;;;5015492;28;20026;-69
2021/05/31 08:22:21;;;;;;;0.40;0.20;;;19.50;44.50;;;;;;5015814;28;20030;-69
2021/05/31 08:24:47;;;;;;;0.50;0.10;;;19.40;44.10;;;;;;5015670;28;20048;-69
2021/05/31 08:27:13;;;;;;;2.85;0.30;;;19.20;44.50;;;;;;5015778;28;20101;-69
2021/05/31 08:29:39;;;;;;;1.13;0.20;;;19.20;44.10;;;;;;5015493;28;20146;-69
2021/05/31 08:32:05;;;;;;;0.65;0.20;;;19.00;44.60;;;;;;5015714;28;20022;-68
2021/05/31 08:34:30;;;;;;;1.92;0.20;;;19.10;45.20;;;;;;5015180;28;20099;-68
2021/05/31 08:36:56;;;;;;;0.47;0.20;;;19.00;44.50;;;;;;5015059;28;20061;-68
2021/05/31 08:39:22;;;;;;;15.05;0.77;;;19.00;45.60;;;;;;5015363;28;20029;-68
2021/05/31 08:41:49;;;;;;;1.10;0.13;;;19.20;45.90;;;;;;5015565;28;20049;-68
2021/05/31 08:44:15;;;;;;;2.05;0.30;;;19.20;44.50;;;;;;5015199;28;20040;-69
2021/05/31 08:46:41;;;;;;;2.03;0.30;;;19.00;44.30;;;;;;5015321;28;20026;-69
2021/05/31 08:49:07;;;;;;;0.98;0.28;;;18.70;44.20;;;;;;5014969;28;20560;-69
2021/05/31 08:51:33;;;;;;;0.22;0.10;;;18.70;45.50;;;;;;5015189;28;20033;-68
2021/05/31 08:54:00;;;;;;;2.63;0.20;;;18.80;45.70;;;;;;5015365;28;20080;-68
2021/05/31 08:56:26;;;;;;;7.45;0.40;;;18.80;45.50;;;;;;5015230;28;20105;-68
2021/05/31 08:58:51;;;;;;;0.75;0.17;;;19.00;46.50;;;;;;5013131;28;20454;-68
2021/05/31 09:01:24;;;;;;;0.75;0.25;;;19.20;45.60;;;;;;5013713;28;20373;-68
2021/05/31 09:03:49;;;;;;;0.15;0.13;;;19.10;44.80;;;;;;5014885;28;20030;-68
2021/05/31 09:06:16;;;;;;;3.40;0.20;;;19.10;44.80;;;;;;5014613;28;20033;-68
2021/05/31 09:08:53;;;;;;;0.40;0.10;;;19.10;44.60;;;;;;5013609;28;20373;-68
2021/05/31 09:11:21;;;;;;;16.25;0.38;;;19.10;44.80;;;;;;5014062;28;20033;-68
2021/05/31 09:13:46;;;;;;;3.45;0.20;;;19.10;44.60;;;;;;5013348;28;20072;-71
2021/05/31 09:16:19;;;;;;;3.35;0.32;;;19.30;45.30;;;;;;5013359;28;20076;-69
2021/05/31 09:18:57;;;;;;;2.95;0.30;;;19.20;44.80;;;;;;5014575;28;20033;-69
2021/05/31 09:21:27;;;;;;;0.28;0.28;;;19.00;44.60;;;;;;5014755;28;20061;-70
2021/05/31 09:24:10;;;;;;;4.93;0.40;;;18.90;44.90;;;;;;5016879;28;20030;-71
2021/05/31 09:27:00;;;;;;;4.35;0.40;;;19.00;46.40;;;;;;5014657;28;20073;-69
2021/05/31 09:29:26;;;;;;;;;;;19.20;45.60;;;;;;5014536;28;20022;-70
2021/05/31 09:32:03;;;;;;;0.47;0.10;;;19.20;45.30;;;;;;5014565;28;19906;-70
2021/05/31 09:34:29;;;;;;;0.15;0.10;;;19.20;44.30;;;;;;5014123;28;20033;-71
2021/05/31 09:36:58;;;;;;;0.10;0.10;;;19.10;45.30;;;;;;5013931;28;20053;-70
2021/05/31 09:39:32;;;;;;;0.20;0.17;;;19.10;45.00;;;;;;5014166;28;20065;-70
2021/05/31 09:42:14;;;;;;;5.53;0.30;;;19.10;45.90;;;;;;5014208;28;20026;-71
2021/05/31 09:44:41;;;;;;;4.55;0.28;;;19.20;45.80;;;;;;5012951;28;20056;-67
2021/05/31 09:47:07;;;;;;;0.68;0.20;;;19.20;44.60;;;;;;5014320;28;20037;-71
2021/05/31 09:49:35;;;;;;;1.00;0.20;;;19.00;44.80;;;;;;5013774;28;20413;-67
2021/05/31 09:52:07;;;;;;;0.32;0.20;;;19.00;45.80;;;;;;5012754;28;20029;-69
2021/05/31 09:54:44;;;;;;;11.65;0.75;;;19.00;44.40;;;;;;5013488;28;20033;-71
2021/05/31 09:57:27;;;;;;;46.13;2.28;;;18.80;47.00;;;;;;5013554;28;20022;-67
2021/05/31 09:59:58;;;;;;;3.08;0.30;;;19.00;45.40;;;;;;5012861;28;20113;-67
2021/05/31 10:11:01;;;;;;;5.80;0.52;;;19.40;46.30;;;;;;5006062;28;20445;-67
2021/05/31 10:13:28;;;;;;;2.50;0.30;;;19.40;46.00;;;;;;5012723;28;20127;-68
2021/05/31 10:15:55;;;;;;;13.57;0.40;;;19.50;45.40;;;;;;5013652;28;20030;-67
2021/05/31 10:18:21;;;;;;;1.35;0.20;;;19.40;44.40;;;;;;5013200;28;20049;-67
2021/05/31 10:20:47;;;;;;;3.25;0.20;;;19.30;45.00;;;;;;5013385;28;20030;-67
2021/05/31 10:23:14;;;;;;;0.68;0.30;;;19.10;44.30;;;;;;5013186;28;20026;-67
2021/05/31 10:25:46;;;;;;;7.30;0.50;;;19.10;45.70;;;;;;5013400;28;20037;-67
2021/05/31 10:28:18;;;;;;;0.88;0.10;;;19.10;44.60;;;;;;5013135;28;20022;-67
2021/05/31 10:30:48;;;;;;;0.73;0.10;;;19.00;44.60;;;;;;5013338;28;20028;-67
2021/05/31 10:33:21;;;;;;;1.33;0.27;;;18.90;45.80;;;;;;5013000;28;20030;-67
2021/05/31 10:35:49;;;;;;;18.73;1.10;;;19.00;45.90;;;;;;5013050;28;20425;-67
2021/05/31 10:38:23;;;;;;;0.85;0.20;;;19.10;45.50;;;;;;5013243;28;20059;-67
2021/05/31 10:40:52;;;;;;;2.53;0.20;;;19.10;46.90;;;;;;5013258;28;20029;-66
2021/05/31 10:43:23;;;;;;;0.75;0.10;;;19.20;48.40;;;;;;5012722;28;20095;-67
2021/05/31 10:45:59;;;;;;;1.15;0.30;;;19.30;48.70;;;;;;5012032;28;20030;-67
2021/05/31 10:48:25;;;;;;;0.75;0.57;;;19.30;47.80;;;;;;5011703;28;20072;-66
2021/05/31 10:51:00;;;;;;;0.13;0.10;;;19.30;47.50;;;;;;5009526;28;20026;-66
2021/05/31 10:53:31;;;;;;;2.55;0.20;;;19.50;48.00;;;;;;5012901;28;20038;-66
2021/05/31 10:56:09;;;;;;;0.55;0.20;;;19.70;48.40;;;;;;5013037;28;20018;-66
2021/05/31 10:58:40;;;;;;;2.60;0.50;;;19.70;47.20;;;;;;5012564;28;20026;-66
2021/05/31 11:01:11;;;;;;;3.45;0.20;;;19.60;45.50;;;;;;5012714;28;20485;-66
2021/05/31 11:04:06;;;;;;;0.22;0.10;;;19.50;46.20;;;;;;4994802;28;20473;-67
2021/05/31 11:06:37;;;;;;;0.20;0.10;;;19.50;46.00;;;;;;5010094;28;20121;-67
2021/05/31 11:09:03;;;;;;;1.00;0.17;;;19.50;45.60;;;;;;5012436;28;20359;-67
2021/05/31 11:11:39;;;;;;;0.15;0.10;;;19.50;45.40;;;;;;5012597;28;20041;-67
2021/05/31 11:14:06;;;;;;;4.38;0.20;;;19.60;45.60;;;;;;5012691;28;20064;-67
2021/05/31 11:16:54;;;;;;;0.35;0.20;;;19.60;44.20;;;;;;5012292;28;20129;-67
2021/05/31 11:19:35;;;;;;;1.95;0.17;;;19.50;45.00;;;;;;5012200;28;20021;-67
2021/05/31 11:22:13;;;;;;;1.85;0.10;;;19.60;44.80;;;;;;5012357;28;20034;-67
2021/05/31 11:24:39;;;;;;;1.95;0.20;;;19.40;44.00;;;;;;5011864;28;20497;-67
2021/05/31 11:27:09;;;;;;;3.72;0.25;;;19.20;45.00;;;;;;5012535;28;20026;-67
2021/05/31 11:29:35;;;;;;;1.90;0.10;;;19.10;45.00;;;;;;5012028;28;20096;-67
2021/05/31 11:32:01;;;;;;;0.10;0.10;;;19.10;45.30;;;;;;5011744;28;20036;-67
2021/05/31 11:34:27;;;;;;;2.10;0.10;;;19.30;47.60;;;;;;5011636;28;20022;-67
2021/05/31 11:36:54;;;;;;;158.32;8.30;;;19.40;46.30;;;;;;5011260;28;20058;-68
2021/05/31 11:39:20;;;;;;;2.40;0.15;;;19.50;45.30;;;;;;5012155;28;20034;-67
2021/05/31 11:41:49;;;;;;;8.70;0.35;;;19.60;46.10;;;;;;5011250;28;20513;-67
2021/05/31 11:44:29;;;;;;;5.57;0.22;;;19.50;45.60;;;;;;5010335;28;20041;-66
2021/05/31 11:46:57;;;;;;;0.57;0.30;;;19.30;45.80;;;;;;5008140;28;20045;-66
2021/05/31 11:49:25;;;;;;;1.85;0.40;;;19.00;46.20;;;;;;5011930;28;20030;-69
2021/05/31 11:52:05;;;;;;;2.25;0.25;;;18.90;45.90;;;;;;5011862;28;20060;-67
2021/05/31 11:54:36;;;;;;;1.17;0.40;;;18.70;46.40;;;;;;5011535;28;20490;-66
2021/05/31 11:57:08;;;;;;;5.88;0.90;;;18.60;47.00;;;;;;5011398;28;20050;-66
2021/05/31 11:59:36;;;;;;;0.13;0.13;;;18.70;46.70;;;;;;5011569;28;20113;-66
2021/05/31 12:02:06;;;;;;;9.48;0.35;;;18.80;45.80;;;;;;4993915;28;20485;-70
2021/05/31 12:04:32;;;;;;;75.03;3.72;;;18.70;45.50;;;;;;5011669;28;20041;-69
2021/05/31 12:07:00;;;;;;;1.27;0.38;;;18.80;46.90;;;;;;5012989;28;20025;-69
2021/05/31 12:09:26;;;;;;;0.60;0.30;;;18.70;47.50;;;;;;5011772;28;20034;-69
2021/05/31 12:11:53;;;;;;;11.32;1.20;;;18.50;46.90;;;;;;5011580;28;20409;-68
2021/05/31 12:14:21;;;;;;;1.48;0.22;;;18.30;47.20;;;;;;5008627;28;20109;-69
2021/05/31 12:17:05;;;;;;;1.20;0.35;;;18.10;47.80;;;;;;5010013;28;20026;-69
2021/05/31 12:19:30;;;;;;;40.35;1.98;;;18.00;48.40;;;;;;5010310;28;20044;-69
2021/05/31 12:22:03;;;;;;;5.45;0.40;;;18.00;48.70;;;;;;4994249;28;20026;-69
2021/05/31 12:24:35;;;;;;;2.38;0.45;;;17.90;48.90;;;;;;5011266;28;20553;-69
2021/05/31 12:27:02;;;;;;;0.80;0.30;;;17.80;48.40;;;;;;5012608;28;20039;-70
2021/05/31 12:29:33;;;;;;;1.08;0.20;;;17.80;48.90;;;;;;5008220;28;20037;-68
2021/05/31 12:31:59;;;;;;;0.80;0.35;;;17.90;49.70;;;;;;5006043;28;20018;-69
2021/05/31 12:34:26;;;;;;;2.83;0.35;;;18.00;49.30;;;;;;5010558;28;20022;-71
2021/05/31 12:36:53;;;;;;;0.40;0.25;;;18.10;51.30;;;;;;4996243;28;20489;-71
2021/05/31 12:39:19;;;;;;;1.75;0.20;;;18.30;49.90;;;;;;5014259;28;20496;-71
2021/05/31 12:41:45;;;;;;;20.42;1.50;;;18.30;49.60;;;;;;5014708;28;20515;-78
2021/05/31 12:44:11;;;;;;;22.20;1.00;;;18.10;49.60;;;;;;5014496;28;20073;-69
2021/05/31 12:46:43;;;;;;;2.20;0.20;;;18.10;50.20;;;;;;5014735;28;20025;-70
2021/05/31 12:49:09;;;;;;;1.55;0.20;;;18.00;49.80;;;;;;5014290;28;20084;-71
2021/05/31 12:51:37;;;;;;;1.50;0.73;;;18.00;50.40;;;;;;5014492;28;20032;-70
2021/05/31 12:54:04;;;;;;;0.30;0.20;;;18.10;50.80;;;;;;5012737;28;20034;-70
2021/05/31 12:56:36;;;;;;;2.30;0.30;;;18.10;50.70;;;;;;5013064;28;20068;-70
2021/05/31 12:59:09;;;;;;;2.00;0.30;;;18.10;50.90;;;;;;5003867;28;20536;-70
2021/05/31 13:01:35;;;;;;;3.72;0.52;;;18.00;50.90;;;;;;5013986;28;20028;-70
2021/05/31 13:04:02;;;;;;;4.25;0.43;;;18.00;50.20;;;;;;5013995;28;20026;-70
2021/05/31 13:06:31;;;;;;;11.45;0.80;;;18.00;50.80;;;;;;5013967;28;20017;-68
2021/05/31 13:08:57;;;;;;;1.05;0.30;;;17.90;51.30;;;;;;5013621;28;20030;-71